createdAt,value
2018-07-16T07:14:24.256Z,21.70
2018-07-16T07:17:22.812Z,21.80
2018-07-16T07:20:08.504Z,22.20
2018-07-16T07:22:39.250Z,21.90
2018-07-16T07:25:30.649Z,22.00
2018-07-16T07:34:31.081Z,22.30
2018-07-16T07:42:58.318Z,22.50
2018-07-16T07:45:29.650Z,22.60
2018-07-16T07:47:58.679Z,22.60
2018-07-16T07:50:26.833Z,22.70
2018-07-16T07:52:54.952Z,22.70
2018-07-16T07:55:23.167Z,22.90
2018-07-16T07:57:50.856Z,22.90
2018-07-16T08:00:18.847Z,23.00
2018-07-16T08:02:46.989Z,22.80
2018-07-16T08:05:15.052Z,23.10
2018-07-16T08:07:42.878Z,23.10
2018-07-16T08:10:10.829Z,23.20
2018-07-16T08:12:38.736Z,23.20
2018-07-16T08:15:09.711Z,23.20
2018-07-16T08:17:45.609Z,23.30
2018-07-16T08:20:31.793Z,23.30
2018-07-16T08:22:59.877Z,23.40
2018-07-16T08:25:28.068Z,23.20
2018-07-16T08:27:55.874Z,23.50
2018-07-16T08:30:23.807Z,23.50
2018-07-16T08:32:51.707Z,23.60
2018-07-16T08:35:19.622Z,23.70
2018-07-16T08:37:52.999Z,23.80
2018-07-16T08:43:24.079Z,24.00
2018-07-16T08:45:52.252Z,24.10
2018-07-16T08:48:19.987Z,24.10
2018-07-16T08:51:02.705Z,24.10
2018-07-16T08:53:30.784Z,24.10
2018-07-16T08:56:02.319Z,24.20
2018-07-16T09:01:32.433Z,24.40
2018-07-16T09:04:08.205Z,24.50
2018-07-16T09:06:48.966Z,24.70
2018-07-16T09:09:16.960Z,24.70
2018-07-16T09:11:45.497Z,24.70
2018-07-16T09:14:13.487Z,24.70
2018-07-16T09:16:41.414Z,24.90
2018-07-16T09:19:09.263Z,25.10
2018-07-16T09:21:37.339Z,25.20
2018-07-16T09:24:05.345Z,25.30
2018-07-16T09:26:36.195Z,25.40
2018-07-16T09:29:04.068Z,25.50
2018-07-16T09:31:31.951Z,25.40
2018-07-16T09:33:59.865Z,25.50
2018-07-16T09:36:28.025Z,25.60
2018-07-16T09:38:55.939Z,25.60
2018-07-16T09:41:24.498Z,25.60
2018-07-16T09:43:52.360Z,25.60
2018-07-16T09:46:20.367Z,25.60
2018-07-16T09:48:48.219Z,25.50
2018-07-16T09:51:16.132Z,25.10
2018-07-16T09:53:43.973Z,25.00
2018-07-16T09:56:12.000Z,25.00
2018-07-16T09:58:39.839Z,25.00
2018-07-16T10:01:13.382Z,25.20
2018-07-16T10:03:41.154Z,25.40
2018-07-16T10:06:09.015Z,25.60
2018-07-16T10:08:36.916Z,25.60
2018-07-16T10:11:04.893Z,25.60
2018-07-16T10:13:32.783Z,26.00
2018-07-16T10:16:00.879Z,26.10
2018-07-16T10:18:28.693Z,26.10
2018-07-16T10:20:56.554Z,26.20
2018-07-16T10:23:26.919Z,26.30
2018-07-16T10:25:54.983Z,26.50
2018-07-16T10:28:22.795Z,26.60
2018-07-16T10:30:50.795Z,26.60
2018-07-16T10:33:18.563Z,26.80
2018-07-16T10:35:46.496Z,26.90
2018-07-16T10:38:14.279Z,27.00
2018-07-16T10:40:42.204Z,27.10
2018-07-16T10:43:09.965Z,27.10
2018-07-16T10:45:37.984Z,27.00
2018-07-16T10:48:06.075Z,27.00
2018-07-16T10:50:33.901Z,27.20
2018-07-16T10:53:01.819Z,27.20
2018-07-16T10:55:30.737Z,27.30
2018-07-16T10:57:58.567Z,27.50
2018-07-16T11:00:27.306Z,27.50
2018-07-16T11:02:55.137Z,27.40
2018-07-16T11:05:23.040Z,27.30
2018-07-16T11:07:51.039Z,27.30
2018-07-16T11:10:18.785Z,27.40
2018-07-16T11:12:46.696Z,27.50
2018-07-16T11:15:14.919Z,27.70
2018-07-16T11:17:42.793Z,27.70
2018-07-16T11:23:13.285Z,27.70
2018-07-16T11:25:45.615Z,27.50
2018-07-16T11:28:13.719Z,27.50
2018-07-16T11:30:41.519Z,27.70
2018-07-16T11:33:09.547Z,27.60
2018-07-16T11:35:37.359Z,27.40
2018-07-16T11:38:05.183Z,27.40
2018-07-16T11:40:33.178Z,27.50
2018-07-16T11:43:00.895Z,27.50
2018-07-16T11:45:28.711Z,27.60
2018-07-16T11:47:56.468Z,27.70
2018-07-16T11:50:24.561Z,27.90
2018-07-16T11:52:52.400Z,28.00
2018-07-16T11:55:20.367Z,28.10
2018-07-16T11:57:48.176Z,28.30
2018-07-16T12:00:16.023Z,28.40
2018-07-16T12:02:43.858Z,28.40
2018-07-16T12:05:12.175Z,28.20
2018-07-16T12:07:39.960Z,28.30
2018-07-16T12:10:08.091Z,28.40
2018-07-16T12:12:35.921Z,28.50
2018-07-16T12:15:03.936Z,28.60
2018-07-16T12:17:31.883Z,28.70
2018-07-16T12:19:59.711Z,28.70
2018-07-16T12:22:27.811Z,28.60
2018-07-16T12:24:55.648Z,28.40
2018-07-16T12:27:23.620Z,28.40
2018-07-16T12:29:51.494Z,28.40
2018-07-16T12:32:21.443Z,28.20
2018-07-16T12:34:49.633Z,28.10
2018-07-16T12:37:17.434Z,28.00
2018-07-16T12:39:45.370Z,28.00
2018-07-16T12:42:13.231Z,28.00
2018-07-16T12:44:41.090Z,28.00
2018-07-16T12:47:08.895Z,28.00
2018-07-16T12:49:36.823Z,28.10
2018-07-16T12:52:04.721Z,28.10
2018-07-16T12:54:32.512Z,28.10
2018-07-16T12:57:00.343Z,28.10
2018-07-16T12:59:28.154Z,28.00
2018-07-16T13:01:55.970Z,28.00
2018-07-16T13:04:23.888Z,28.00
2018-07-16T13:06:51.751Z,28.00
2018-07-16T13:09:19.726Z,28.10
2018-07-16T13:11:47.562Z,28.10
2018-07-16T13:14:15.710Z,28.10
2018-07-16T13:16:43.640Z,28.10
2018-07-16T13:19:34.152Z,28.20
2018-07-16T13:22:06.998Z,28.30
2018-07-16T13:24:35.146Z,28.20
2018-07-16T13:27:03.009Z,28.50
2018-07-16T13:29:31.541Z,28.50
2018-07-16T13:31:59.345Z,28.50
2018-07-16T13:34:27.289Z,28.50
2018-07-16T13:36:55.421Z,28.30
2018-07-16T13:39:23.458Z,28.60
2018-07-16T13:41:51.588Z,28.60
2018-07-16T13:44:19.524Z,28.50
2018-07-16T13:46:47.238Z,28.40
2018-07-16T13:49:15.040Z,28.40
2018-07-16T13:51:42.955Z,28.40
2018-07-16T13:54:11.197Z,28.40
2018-07-16T13:59:32.266Z,28.30
2018-07-16T14:02:00.025Z,28.50
2018-07-16T14:04:28.023Z,28.60
2018-07-16T14:06:56.332Z,28.70
2018-07-16T14:09:24.167Z,28.70
2018-07-16T14:11:57.209Z,28.70
2018-07-16T14:17:28.165Z,28.70
2018-07-16T14:19:57.646Z,29.00
2018-07-16T14:22:25.741Z,29.00
2018-07-16T14:24:53.539Z,29.00
2018-07-16T14:27:21.805Z,29.00
2018-07-16T14:29:49.604Z,29.20
2018-07-16T14:32:17.558Z,29.20
2018-07-16T14:34:45.565Z,29.10
2018-07-16T14:37:13.623Z,29.10
2018-07-16T14:39:41.483Z,29.10
2018-07-16T14:42:09.612Z,29.00
2018-07-16T14:44:37.630Z,29.10
2018-07-16T14:47:05.702Z,29.10
2018-07-16T14:49:33.557Z,29.30
2018-07-16T14:52:01.417Z,29.20
2018-07-16T14:54:29.541Z,29.00
2018-07-16T14:56:57.599Z,28.60
2018-07-16T14:59:25.309Z,28.40
2018-07-16T15:01:53.420Z,28.20
2018-07-16T15:04:21.649Z,28.20
2018-07-16T15:06:49.653Z,28.20
2018-07-16T15:09:17.793Z,28.40
2018-07-16T15:11:45.692Z,28.40
2018-07-16T15:14:13.716Z,28.40
2018-07-16T15:16:41.509Z,28.50
2018-07-16T15:19:09.427Z,28.50
2018-07-16T15:21:37.320Z,28.60
2018-07-16T15:24:05.210Z,28.60
2018-07-16T15:26:33.185Z,28.60
2018-07-16T15:29:01.090Z,28.50
2018-07-16T15:31:29.653Z,28.70
2018-07-16T15:33:57.567Z,28.70
2018-07-16T15:36:25.549Z,28.80
2018-07-16T15:38:53.767Z,28.90
2018-07-16T15:41:21.646Z,28.80
2018-07-16T15:43:49.516Z,28.80
2018-07-16T15:46:17.634Z,28.80
2018-07-16T15:51:41.260Z,28.80
2018-07-16T15:54:09.552Z,28.70
2018-07-16T15:56:38.734Z,28.70
2018-07-16T15:59:06.751Z,28.90
2018-07-16T16:01:34.601Z,28.80
2018-07-16T16:04:02.659Z,28.80
2018-07-16T16:06:30.944Z,28.90
2018-07-16T16:08:58.749Z,28.80
2018-07-16T16:11:27.110Z,28.70
2018-07-16T16:13:55.142Z,28.70
2018-07-16T16:16:23.242Z,28.70
2018-07-16T16:18:50.973Z,28.70
2018-07-16T16:21:18.912Z,28.70
2018-07-16T16:23:47.740Z,28.80
2018-07-16T16:26:15.671Z,28.30
2018-07-16T16:28:43.633Z,28.60
2018-07-16T16:31:11.670Z,28.70
2018-07-16T16:33:39.876Z,28.30
2018-07-16T16:36:07.926Z,28.60
2018-07-16T16:38:35.811Z,28.60
2018-07-16T16:41:03.602Z,28.70
2018-07-16T16:43:31.310Z,28.70
2018-07-16T16:46:00.052Z,28.70
2018-07-16T16:48:27.964Z,28.80
2018-07-16T16:50:56.139Z,28.70
2018-07-16T16:53:23.994Z,28.70
2018-07-16T16:55:57.913Z,28.60
2018-07-16T16:58:25.727Z,28.50
2018-07-16T17:00:53.593Z,28.30
2018-07-16T17:06:24.787Z,28.20
2018-07-16T17:08:54.353Z,28.10
2018-07-16T17:11:22.408Z,28.10
2018-07-16T17:13:50.308Z,27.90
2018-07-16T17:16:18.219Z,28.10
2018-07-16T17:18:46.401Z,27.90
2018-07-16T17:24:18.121Z,28.00
2018-07-16T17:26:46.050Z,27.90
2018-07-16T17:29:14.021Z,27.60
2018-07-16T17:31:43.893Z,27.90
2018-07-16T17:34:12.000Z,27.80
2018-07-16T17:36:40.513Z,27.80
2018-07-16T17:39:09.089Z,27.70
2018-07-16T17:41:37.160Z,27.40
2018-07-16T17:44:05.073Z,27.60
2018-07-16T17:46:33.307Z,27.40
2018-07-16T17:49:01.454Z,27.40
2018-07-16T17:51:33.185Z,27.40
2018-07-16T17:54:01.676Z,27.30
2018-07-16T17:56:29.645Z,27.20
2018-07-16T17:58:57.745Z,27.20
2018-07-16T18:01:25.801Z,27.20
2018-07-16T18:03:53.795Z,27.00
2018-07-16T18:06:21.783Z,27.00
2018-07-16T18:08:49.830Z,26.90
2018-07-16T18:14:20.531Z,26.60
2018-07-16T18:16:48.798Z,26.60
2018-07-16T18:19:16.685Z,26.40
2018-07-16T18:24:47.474Z,26.10
2018-07-16T18:27:16.337Z,25.90
2018-07-16T18:32:47.485Z,25.50
2018-07-16T18:35:17.391Z,25.30
2018-07-16T18:40:49.354Z,25.00
2018-07-16T18:46:20.305Z,24.70
2018-07-16T18:48:48.227Z,24.50
2018-07-16T18:51:16.171Z,24.40
2018-07-16T18:56:47.140Z,24.10
